createdAt,value
2018-09-11T00:01:42.884Z,16.30
2018-09-11T00:04:10.699Z,16.30
2018-09-11T00:06:38.312Z,16.30
2018-09-11T00:09:10.080Z,16.30
2018-09-11T00:11:37.889Z,16.30
2018-09-11T00:14:05.517Z,16.30
2018-09-11T00:16:33.151Z,16.30
2018-09-11T00:19:00.827Z,17.30
2018-09-11T00:21:28.454Z,16.30
2018-09-11T00:23:56.126Z,16.40
2018-09-11T00:26:23.841Z,16.60
2018-09-11T00:28:51.644Z,16.50
2018-09-11T00:31:19.365Z,16.50
2018-09-11T00:33:47.027Z,16.50
2018-09-11T00:36:14.637Z,16.60
2018-09-11T00:38:42.250Z,16.50
2018-09-11T00:41:09.918Z,16.50
2018-09-11T00:43:37.559Z,16.50
2018-09-11T00:46:05.244Z,16.40
2018-09-11T00:48:32.900Z,16.50
2018-09-11T00:51:00.632Z,16.50
2018-09-11T00:53:28.363Z,16.50
2018-09-11T00:55:56.069Z,16.40
2018-09-11T00:58:23.721Z,16.40
2018-09-11T01:00:51.385Z,16.40
2018-09-11T01:03:19.011Z,16.40
2018-09-11T01:05:46.719Z,16.50
2018-09-11T01:08:14.387Z,16.40
2018-09-11T01:10:42.044Z,16.40
2018-09-11T01:13:10.004Z,16.50
2018-09-11T01:15:37.721Z,16.40
2018-09-11T01:23:00.584Z,16.40
2018-09-11T01:25:28.312Z,16.50
2018-09-11T01:27:56.000Z,16.50
2018-09-11T01:30:23.816Z,16.40
2018-09-11T01:32:51.933Z,16.30
2018-09-11T01:35:20.174Z,16.50
2018-09-11T01:37:47.855Z,16.50
2018-09-11T01:40:15.547Z,16.50
2018-09-11T01:42:43.202Z,16.50
2018-09-11T01:45:10.831Z,16.50
2018-09-11T01:47:38.509Z,16.50
2018-09-11T01:50:06.230Z,16.40
2018-09-11T01:52:33.872Z,16.40
2018-09-11T01:55:01.529Z,16.40
2018-09-11T01:57:29.170Z,16.40
2018-09-11T01:59:56.936Z,15.90
2018-09-11T02:02:24.622Z,16.40
2018-09-11T02:04:52.824Z,16.40
2018-09-11T02:07:20.485Z,16.40
2018-09-11T02:09:48.127Z,16.50
2018-09-11T02:12:15.882Z,16.60
2018-09-11T02:14:43.860Z,16.50
2018-09-11T02:17:11.667Z,16.50
2018-09-11T02:19:39.347Z,16.50
2018-09-11T02:22:07.319Z,16.50
2018-09-11T02:24:35.035Z,16.60
2018-09-11T02:27:02.712Z,16.60
2018-09-11T02:29:30.322Z,16.60
2018-09-11T02:34:25.636Z,16.60
2018-09-11T02:41:48.321Z,16.50
2018-09-11T02:44:16.019Z,16.50
2018-09-11T02:49:11.377Z,16.50
2018-09-11T02:51:39.079Z,16.50
2018-09-11T02:54:06.708Z,16.50
2018-09-11T02:56:34.460Z,16.40
2018-09-11T02:59:02.227Z,16.40
2018-09-11T03:01:29.916Z,16.50
2018-09-11T03:03:57.593Z,16.40
2018-09-11T03:06:25.219Z,16.40
2018-09-11T03:08:52.871Z,16.40
2018-09-11T03:11:20.504Z,16.40
2018-09-11T03:13:50.071Z,16.30
2018-09-11T03:16:17.808Z,16.30
2018-09-11T03:18:45.477Z,16.50
2018-09-11T03:21:13.222Z,16.50
2018-09-11T03:23:40.957Z,16.50
2018-09-11T03:26:08.585Z,16.50
2018-09-11T03:28:36.275Z,16.50
2018-09-11T03:31:03.927Z,16.50
2018-09-11T03:33:31.582Z,16.50
2018-09-11T03:35:59.768Z,16.70
2018-09-11T03:38:27.488Z,16.80
2018-09-11T03:40:55.229Z,16.80
2018-09-11T03:43:22.879Z,16.90
2018-09-11T03:45:50.495Z,16.90
2018-09-11T03:48:20.418Z,16.90
2018-09-11T03:50:49.316Z,17.00
2018-09-11T03:53:17.404Z,17.00
2018-09-11T04:05:35.892Z,17.00
2018-09-11T04:08:03.500Z,17.00
2018-09-11T04:10:31.114Z,17.10
2018-09-11T04:12:58.812Z,17.00
2018-09-11T04:15:26.498Z,17.00
2018-09-11T04:17:55.946Z,17.00
2018-09-11T04:20:23.662Z,17.10
2018-09-11T04:22:51.438Z,17.10
2018-09-11T04:25:19.163Z,17.10
2018-09-11T04:27:46.917Z,17.10
2018-09-11T04:30:14.557Z,17.00
2018-09-11T04:32:42.458Z,17.00
2018-09-11T04:35:10.202Z,17.00
2018-09-11T04:37:37.857Z,17.00
2018-09-11T04:40:05.619Z,17.00
2018-09-11T04:42:33.516Z,17.00
2018-09-11T04:45:01.300Z,17.00
2018-09-11T04:47:28.952Z,17.00
2018-09-11T04:49:56.684Z,17.00
2018-09-11T04:54:52.052Z,16.90
2018-09-11T04:57:19.917Z,16.80
2018-09-11T04:59:47.729Z,16.90
2018-09-11T05:02:15.728Z,16.80
2018-09-11T05:04:43.425Z,16.70
2018-09-11T05:07:11.053Z,16.70
2018-09-11T05:09:38.705Z,16.70
2018-09-11T05:12:06.500Z,16.60
2018-09-11T05:14:34.200Z,16.70
2018-09-11T05:17:01.917Z,16.70
2018-09-11T05:19:29.566Z,16.70
2018-09-11T05:21:57.223Z,16.60
2018-09-11T05:24:24.859Z,16.60
2018-09-11T05:26:52.476Z,16.60
2018-09-11T05:31:47.802Z,16.50
2018-09-11T05:34:15.493Z,16.60
2018-09-11T05:36:43.147Z,16.60
2018-09-11T05:39:10.869Z,16.60
2018-09-11T05:41:38.451Z,16.70
2018-09-11T05:46:34.375Z,16.60
2018-09-11T05:49:02.043Z,16.70
2018-09-11T05:58:52.546Z,16.70
2018-09-11T06:01:20.218Z,16.80
2018-09-11T06:03:47.916Z,16.70
2018-09-11T06:06:15.700Z,16.80
2018-09-11T06:08:43.396Z,16.80
2018-09-11T06:11:11.045Z,16.80
2018-09-11T06:13:38.846Z,16.80
2018-09-11T06:16:06.562Z,16.80
2018-09-11T06:18:34.235Z,16.90
2018-09-11T06:21:01.913Z,16.80
2018-09-11T06:23:29.534Z,16.90
2018-09-11T06:25:57.171Z,16.90
2018-09-11T06:30:52.485Z,16.90
2018-09-11T06:33:20.179Z,16.90
2018-09-11T06:35:47.804Z,16.90
2018-09-11T06:38:16.164Z,17.00
2018-09-11T06:40:43.800Z,17.00
2018-09-11T06:43:11.585Z,17.00
2018-09-11T06:45:39.354Z,17.20
2018-09-11T06:48:07.011Z,17.30
2018-09-11T06:50:34.701Z,17.20
2018-09-11T06:55:30.110Z,17.30
2018-09-11T06:57:57.837Z,17.40
2018-09-11T07:00:25.655Z,17.50
2018-09-11T07:02:53.599Z,17.60
2018-09-11T07:05:21.389Z,17.60
2018-09-11T07:07:49.363Z,17.70
2018-09-11T07:10:17.207Z,17.70
2018-09-11T07:12:44.871Z,17.80
2018-09-11T07:15:12.822Z,17.90
2018-09-11T07:17:40.495Z,18.10
2018-09-11T07:20:09.086Z,18.30
2018-09-11T07:22:36.620Z,18.30
2018-09-11T07:25:04.508Z,18.30
2018-09-11T07:30:01.134Z,18.30
2018-09-11T07:32:28.835Z,18.30
2018-09-11T07:34:56.494Z,18.30
2018-09-11T07:37:24.151Z,18.50
2018-09-11T07:39:51.784Z,18.50
2018-09-11T07:47:14.700Z,18.60
2018-09-11T07:49:42.356Z,18.70
2018-09-11T07:52:10.019Z,18.70
2018-09-11T07:54:37.623Z,18.70
2018-09-11T07:57:05.284Z,18.70
2018-09-11T07:59:32.919Z,18.80
2018-09-11T08:02:00.575Z,19.00
2018-09-11T08:06:55.737Z,19.10
2018-09-11T08:09:23.406Z,19.20
2018-09-11T08:11:51.138Z,19.30
2018-09-11T08:14:18.713Z,19.30
2018-09-11T08:16:46.400Z,19.40
2018-09-11T08:19:14.007Z,19.50
2018-09-11T08:21:41.656Z,19.50
2018-09-11T08:24:09.342Z,19.50
2018-09-11T08:26:36.996Z,19.60
2018-09-11T08:29:04.711Z,19.60
2018-09-11T08:31:32.361Z,19.70
2018-09-11T08:33:59.996Z,19.70
2018-09-11T08:36:27.644Z,19.80
2018-09-11T08:38:55.332Z,19.80
2018-09-11T08:41:23.001Z,19.80
2018-09-11T08:46:18.256Z,20.00
2018-09-11T08:48:45.960Z,20.10
2018-09-11T08:51:13.600Z,20.10
2018-09-11T08:56:09.893Z,20.40
2018-09-11T08:58:37.620Z,20.30
2018-09-11T09:03:33.072Z,20.30
2018-09-11T09:06:00.685Z,20.40
2018-09-11T09:08:28.301Z,20.50
2018-09-11T09:10:55.976Z,20.50
2018-09-11T09:13:23.632Z,20.50
2018-09-11T09:15:51.277Z,20.50
2018-09-11T09:18:18.950Z,20.60
2018-09-11T09:20:46.860Z,20.70
2018-09-11T09:23:14.524Z,20.80
2018-09-11T09:25:42.201Z,20.90
2018-09-11T09:28:09.893Z,20.90
2018-09-11T09:35:32.804Z,21.30
2018-09-11T09:38:00.444Z,21.30
2018-09-11T09:40:28.047Z,21.40
2018-09-11T09:42:55.741Z,21.40
2018-09-11T09:47:50.961Z,21.40
2018-09-11T09:50:18.581Z,21.50
2018-09-11T09:52:46.199Z,21.50
2018-09-11T09:55:15.850Z,21.60
2018-09-11T09:57:43.511Z,21.70
2018-09-11T10:00:11.200Z,21.80
2018-09-11T10:02:38.819Z,21.80
2018-09-11T10:05:06.561Z,22.00
2018-09-11T10:07:34.233Z,22.00
2018-09-11T10:10:01.903Z,22.10
2018-09-11T10:12:29.528Z,22.20
2018-09-11T10:14:57.168Z,22.40
2018-09-11T10:17:24.884Z,22.50
2018-09-11T10:19:52.467Z,22.40
2018-09-11T10:22:20.124Z,22.50
2018-09-11T10:24:47.767Z,22.50
2018-09-11T10:27:15.491Z,22.60
2018-09-11T10:29:43.116Z,22.80
2018-09-11T10:34:38.333Z,22.80
2018-09-11T10:37:05.973Z,22.90
2018-09-11T10:39:33.708Z,22.90
2018-09-11T10:42:01.315Z,23.10
2018-09-11T10:44:28.928Z,23.20
2018-09-11T10:46:56.576Z,23.30
2018-09-11T10:54:19.371Z,23.40
2018-09-11T10:59:14.567Z,23.70
2018-09-11T11:01:42.251Z,23.80
2018-09-11T11:04:09.931Z,23.90
2018-09-11T11:06:37.548Z,24.00
2018-09-11T11:09:07.737Z,24.00
2018-09-11T11:11:35.426Z,24.10
2018-09-11T11:14:03.063Z,24.20
2018-09-11T11:21:25.834Z,24.20
2018-09-11T11:23:53.582Z,24.40
2018-09-11T11:26:21.203Z,24.40
2018-09-11T11:28:48.881Z,24.30
2018-09-11T11:31:16.508Z,24.20
2018-09-11T11:33:44.168Z,24.40
2018-09-11T11:36:11.919Z,24.60
2018-09-11T11:38:39.524Z,24.70
2018-09-11T11:41:07.185Z,24.80
2018-09-11T11:43:34.880Z,24.80
2018-09-11T11:46:02.543Z,25.00
2018-09-11T11:48:30.166Z,25.10
2018-09-11T11:50:57.832Z,25.10
2018-09-11T11:53:25.509Z,25.30
2018-09-11T11:55:53.144Z,25.10
2018-09-11T11:58:20.780Z,25.00
2018-09-11T12:00:48.474Z,25.30
2018-09-11T12:03:16.113Z,25.70
2018-09-11T12:05:43.774Z,25.70
2018-09-11T12:08:11.448Z,25.90
2018-09-11T12:10:39.111Z,26.00
2018-09-11T12:13:06.843Z,26.20
2018-09-11T12:15:34.494Z,26.20
2018-09-11T12:18:02.264Z,26.60
2018-09-11T12:20:30.232Z,26.40
2018-09-11T12:22:57.860Z,26.50
2018-09-11T12:25:25.549Z,26.60
2018-09-11T12:30:20.818Z,26.30
2018-09-11T12:32:48.437Z,26.70
2018-09-11T12:35:16.102Z,26.90
2018-09-11T12:37:43.729Z,26.70
2018-09-11T12:40:11.423Z,26.80
2018-09-11T12:42:39.752Z,26.90
2018-09-11T12:45:07.613Z,27.10
2018-09-11T12:47:36.988Z,27.40
2018-09-11T12:52:32.121Z,27.70
2018-09-11T12:54:59.739Z,27.70
2018-09-11T12:57:27.348Z,27.50
2018-09-11T12:59:55.011Z,27.40
2018-09-11T13:02:22.705Z,27.90
2018-09-11T13:04:50.354Z,28.30
2018-09-11T13:07:18.025Z,28.30
2018-09-11T13:09:46.488Z,28.40
2018-09-11T13:12:14.220Z,28.40
2018-09-11T13:14:41.861Z,28.60
2018-09-11T13:17:09.533Z,29.00
2018-09-11T13:19:37.168Z,29.10
2018-09-11T13:22:04.898Z,29.50
2018-09-11T13:24:32.608Z,29.40
2018-09-11T13:27:00.259Z,29.60
2018-09-11T13:29:27.927Z,29.60
2018-09-11T13:31:55.581Z,29.90
2018-09-11T13:34:23.216Z,30.00
2018-09-11T13:36:50.890Z,30.10
2018-09-11T13:39:18.617Z,30.50
2018-09-11T13:41:46.279Z,30.30
2018-09-11T13:44:13.944Z,30.20
2018-09-11T13:46:42.493Z,30.30
2018-09-11T13:49:10.306Z,30.00
2018-09-11T13:51:37.992Z,30.20
2018-09-11T13:54:05.669Z,30.50
2018-09-11T13:56:33.350Z,30.40
2018-09-11T13:59:00.975Z,30.50
2018-09-11T14:03:56.277Z,30.60
2018-09-11T14:11:19.082Z,30.60
2018-09-11T14:13:46.688Z,31.00
2018-09-11T14:16:14.356Z,31.20
2018-09-11T14:18:41.977Z,31.30
2018-09-11T14:21:09.654Z,31.30
2018-09-11T14:23:37.311Z,31.10
2018-09-11T14:26:05.026Z,30.90
2018-09-11T14:28:32.752Z,31.40
2018-09-11T14:31:00.412Z,31.10
2018-09-11T14:33:28.105Z,31.10
2018-09-11T14:35:55.741Z,30.80
2018-09-11T14:38:23.532Z,31.00
2018-09-11T14:40:51.330Z,31.40
2018-09-11T14:45:46.591Z,31.80
2018-09-11T14:48:14.240Z,32.10
2018-09-11T14:50:41.908Z,32.50
2018-09-11T14:53:09.603Z,32.50
2018-09-11T14:55:37.267Z,32.50
2018-09-11T14:58:05.076Z,32.60
2018-09-11T15:00:32.722Z,32.80
2018-09-11T15:03:00.395Z,32.50
2018-09-11T15:10:23.169Z,31.80
2018-09-11T15:12:50.828Z,32.20
2018-09-11T15:15:18.563Z,32.00
2018-09-11T15:17:47.896Z,32.60
2018-09-11T15:20:15.544Z,33.40
2018-09-11T15:22:43.207Z,34.00
2018-09-11T15:27:38.424Z,34.90
2018-09-11T15:30:06.100Z,35.00
2018-09-11T15:32:33.740Z,35.10
2018-09-11T15:35:01.400Z,34.30
2018-09-11T15:37:29.051Z,33.20
2018-09-11T15:39:56.784Z,33.60
2018-09-11T15:42:24.432Z,33.50
2018-09-11T15:47:19.672Z,33.30
2018-09-11T15:49:47.363Z,33.00
2018-09-11T15:52:15.021Z,32.80
2018-09-11T15:54:42.654Z,33.10
2018-09-11T15:57:10.397Z,32.60
2018-09-11T15:59:38.041Z,32.40
2018-09-11T16:02:05.865Z,32.40
2018-09-11T16:04:33.623Z,32.60
2018-09-11T16:07:01.310Z,32.30
2018-09-11T16:11:56.532Z,31.80
2018-09-11T16:14:24.173Z,31.70
2018-09-11T16:16:51.813Z,31.90
2018-09-11T16:19:19.461Z,31.20
2018-09-11T16:21:47.141Z,30.90
2018-09-11T16:24:14.801Z,30.60
2018-09-11T16:26:42.456Z,29.80
2018-09-11T16:29:10.079Z,29.30
2018-09-11T16:31:37.744Z,28.60
2018-09-11T16:34:05.551Z,28.40
2018-09-11T16:39:00.742Z,27.80
2018-09-11T16:46:24.995Z,27.20
2018-09-11T16:48:52.624Z,27.20
2018-09-11T16:58:42.999Z,26.60
2018-09-11T17:01:10.699Z,26.60
2018-09-11T17:06:06.033Z,26.50
2018-09-11T17:08:33.725Z,26.50
2018-09-11T17:11:01.386Z,26.40
2018-09-11T17:13:29.024Z,26.30
2018-09-11T17:15:56.796Z,26.30
2018-09-11T17:18:24.416Z,26.20
2018-09-11T17:20:52.125Z,26.30
2018-09-11T17:23:19.764Z,26.20
2018-09-11T17:25:47.414Z,26.20
2018-09-11T17:28:15.125Z,26.10
2018-09-11T17:30:42.868Z,26.00
2018-09-11T17:33:10.490Z,25.90
2018-09-11T17:35:38.184Z,25.90
2018-09-11T17:38:05.806Z,25.70
2018-09-11T17:40:33.428Z,25.70
2018-09-11T17:43:01.222Z,25.70
2018-09-11T17:45:28.902Z,25.70
2018-09-11T17:47:56.568Z,25.70
2018-09-11T17:52:51.808Z,25.60
2018-09-11T17:55:19.600Z,25.50
2018-09-11T17:57:47.244Z,25.40
2018-09-11T18:00:14.917Z,25.30
2018-09-11T18:02:42.676Z,25.20
2018-09-11T18:05:10.482Z,25.20
2018-09-11T18:07:38.258Z,25.10
2018-09-11T18:12:33.523Z,25.20
2018-09-11T18:15:01.297Z,24.90
2018-09-11T18:17:29.013Z,24.90
2018-09-11T18:19:56.661Z,24.80
2018-09-11T18:22:24.305Z,24.80
2018-09-11T18:24:52.143Z,24.80
2018-09-11T18:27:19.869Z,24.70
2018-09-11T18:29:47.493Z,24.60
2018-09-11T18:32:15.147Z,24.60
2018-09-11T18:37:10.473Z,24.40
2018-09-11T18:39:38.189Z,24.40
2018-09-11T18:42:05.929Z,24.30
2018-09-11T18:44:33.621Z,24.20
2018-09-11T18:47:01.193Z,24.20
2018-09-11T18:49:28.937Z,24.10
2018-09-11T18:54:24.356Z,24.00
2018-09-11T18:56:52.226Z,24.00
2018-09-11T18:59:19.931Z,24.00
2018-09-11T19:01:47.660Z,24.00
2018-09-11T19:04:15.330Z,24.00
2018-09-11T19:06:43.376Z,24.00
2018-09-11T19:09:11.872Z,23.80
2018-09-11T19:11:41.571Z,23.90
2018-09-11T19:14:09.916Z,23.80
2018-09-11T19:16:37.692Z,23.70
2018-09-11T19:21:33.178Z,23.60
2018-09-11T19:24:00.982Z,23.50
2018-09-11T19:26:28.970Z,23.50
2018-09-11T19:28:56.782Z,23.50
2018-09-11T19:33:53.854Z,23.50
2018-09-11T19:36:21.668Z,23.40
2018-09-11T19:38:49.415Z,23.40
2018-09-11T19:41:17.126Z,23.30
2018-09-11T19:43:44.780Z,23.20
2018-09-11T19:46:12.463Z,23.20
2018-09-11T19:48:40.117Z,23.10
2018-09-11T19:51:07.809Z,23.10
2018-09-11T19:53:35.638Z,23.00
2018-09-11T19:56:03.317Z,23.00
2018-09-11T19:58:31.021Z,22.90
2018-09-11T20:00:58.730Z,22.80
2018-09-11T20:03:26.397Z,22.80
2018-09-11T20:05:54.143Z,22.80
2018-09-11T20:10:49.398Z,22.70
2018-09-11T20:13:17.168Z,22.70
2018-09-11T20:15:45.987Z,22.60
2018-09-11T20:23:08.998Z,22.60
2018-09-11T20:25:36.705Z,22.60
2018-09-11T20:28:04.510Z,22.70
2018-09-11T20:30:32.203Z,22.70
2018-09-11T20:32:59.814Z,22.70
2018-09-11T20:35:27.519Z,22.60
2018-09-11T20:37:55.215Z,22.60
2018-09-11T20:40:22.889Z,22.60
2018-09-11T20:42:50.525Z,22.50
2018-09-11T20:47:45.768Z,22.40
2018-09-11T20:50:13.444Z,22.30
2018-09-11T20:52:41.068Z,22.30
2018-09-11T20:55:08.792Z,22.30
2018-09-11T20:57:36.696Z,22.30
2018-09-11T21:07:27.140Z,22.00
2018-09-11T21:12:22.389Z,22.00
2018-09-11T21:14:50.151Z,21.90
2018-09-11T21:17:17.831Z,21.80
2018-09-11T21:19:45.467Z,21.70
2018-09-11T21:22:13.176Z,21.60
2018-09-11T21:24:40.851Z,21.50
2018-09-11T21:27:08.580Z,21.40
2018-09-11T21:29:36.199Z,21.30
2018-09-11T21:32:03.912Z,21.30
2018-09-11T21:34:31.539Z,21.20
2018-09-11T21:36:59.189Z,21.20
2018-09-11T21:39:26.832Z,21.10
2018-09-11T21:41:54.507Z,21.10
2018-09-11T21:44:22.176Z,21.10
2018-09-11T21:46:49.899Z,21.10
2018-09-11T21:49:17.577Z,21.20
2018-09-11T21:51:45.214Z,21.20
2018-09-11T21:54:12.832Z,21.30
2018-09-11T21:56:40.564Z,21.30
2018-09-11T21:59:08.287Z,21.40
2018-09-11T22:01:42.940Z,21.40
2018-09-11T22:04:10.724Z,21.40
2018-09-11T22:06:38.387Z,21.50
2018-09-11T22:09:07.847Z,21.40
2018-09-11T22:11:35.549Z,21.40
2018-09-11T22:14:03.200Z,21.40
2018-09-11T22:16:30.863Z,21.40
2018-09-11T22:18:58.639Z,21.40
2018-09-11T22:21:26.355Z,21.40
2018-09-11T22:23:54.010Z,21.50
2018-09-11T22:26:21.643Z,21.40
2018-09-11T22:28:49.303Z,21.40
2018-09-11T22:31:16.980Z,21.40
2018-09-11T22:33:44.692Z,21.40
2018-09-11T22:36:12.363Z,21.50
2018-09-11T22:38:41.643Z,21.50
2018-09-11T22:41:09.357Z,21.40
2018-09-11T22:43:39.185Z,21.40
2018-09-11T22:46:06.905Z,21.40
2018-09-11T22:48:34.563Z,21.50
2018-09-11T22:51:02.213Z,21.40
2018-09-11T22:53:29.872Z,21.40
2018-09-11T22:55:58.090Z,21.40
2018-09-11T22:58:25.745Z,21.40
2018-09-11T23:00:53.399Z,21.40
2018-09-11T23:03:21.088Z,21.40
2018-09-11T23:05:48.791Z,21.30
2018-09-11T23:08:16.543Z,21.30
2018-09-11T23:10:44.163Z,21.20
2018-09-11T23:13:11.819Z,21.20
2018-09-11T23:15:39.524Z,21.20
2018-09-11T23:18:07.453Z,21.10
2018-09-11T23:20:35.125Z,21.00
2018-09-11T23:23:02.756Z,21.00
2018-09-11T23:25:30.395Z,21.00
2018-09-11T23:27:58.064Z,20.90
2018-09-11T23:30:25.727Z,21.00
2018-09-11T23:32:53.426Z,21.00
2018-09-11T23:35:21.089Z,21.00
2018-09-11T23:37:48.740Z,20.90
2018-09-11T23:40:16.358Z,20.90
2018-09-11T23:50:07.293Z,21.00
2018-09-11T23:55:02.663Z,21.00
2018-09-11T23:59:57.942Z,21.00
